createdAt,value
2019-04-05T00:00:25.012Z,9.00
2019-04-05T00:02:52.066Z,9.45
2019-04-05T00:05:19.060Z,10.08
2019-04-05T00:07:46.068Z,10.45
2019-04-05T00:10:13.274Z,9.70
2019-04-05T00:12:40.388Z,9.35
2019-04-05T00:15:15.053Z,9.50
2019-04-05T00:17:36.400Z,8.93
2019-04-05T00:20:04.113Z,8.83
2019-04-05T00:22:31.179Z,10.03
2019-04-05T00:24:58.261Z,9.28
2019-04-05T00:27:25.268Z,8.45
2019-04-05T00:29:52.368Z,9.43
2019-04-05T00:32:19.405Z,8.55
2019-04-05T00:34:46.435Z,8.50
2019-04-05T00:37:13.502Z,8.58
2019-04-05T00:39:40.531Z,8.75
2019-04-05T00:42:07.626Z,8.63
2019-04-05T00:44:34.627Z,7.60
2019-04-05T00:47:01.747Z,8.58
2019-04-05T00:49:28.846Z,8.90
2019-04-05T00:51:55.877Z,9.30
2019-04-05T00:54:22.989Z,9.08
2019-04-05T00:56:50.067Z,9.15
2019-04-05T00:59:17.179Z,9.38
2019-04-05T01:01:44.618Z,9.00
2019-04-05T01:04:11.523Z,9.45
2019-04-05T01:06:38.631Z,8.48
2019-04-05T01:09:06.319Z,8.95
2019-04-05T01:11:52.698Z,8.05
2019-04-05T01:14:20.167Z,8.65
2019-04-05T01:16:47.152Z,9.75
2019-04-05T01:19:14.674Z,8.63
2019-04-05T01:21:44.940Z,9.40
2019-04-05T01:24:12.932Z,9.48
2019-04-05T01:26:42.663Z,9.20
2019-04-05T01:29:09.953Z,9.80
2019-04-05T01:31:36.955Z,9.83
2019-04-05T01:34:05.600Z,9.33
2019-04-05T01:36:32.865Z,8.98
2019-04-05T01:38:59.808Z,9.10
2019-04-05T01:41:26.717Z,9.75
2019-04-05T01:43:53.700Z,8.65
2019-04-05T01:46:20.925Z,9.50
2019-04-05T01:48:47.959Z,8.90
2019-04-05T01:51:15.000Z,8.45
2019-04-05T01:53:42.066Z,9.05
2019-04-05T01:56:09.053Z,9.70
2019-04-05T01:58:36.053Z,8.95
2019-04-05T02:01:03.195Z,9.15
2019-04-05T02:03:30.231Z,9.25
2019-04-05T02:05:57.312Z,8.95
2019-04-05T02:08:24.651Z,9.10
2019-04-05T02:10:51.953Z,9.00
2019-04-05T02:13:18.938Z,8.65
2019-04-05T02:15:45.984Z,9.15
2019-04-05T02:18:12.856Z,9.35
2019-04-05T02:20:39.915Z,9.43
2019-04-05T02:23:07.002Z,9.90
2019-04-05T02:25:34.050Z,9.18
2019-04-05T02:28:01.164Z,10.28
2019-04-05T02:30:28.340Z,9.95
2019-04-05T02:32:55.421Z,10.10
2019-04-05T02:35:22.455Z,10.23
2019-04-05T02:37:49.491Z,9.43
2019-04-05T02:40:16.627Z,10.35
2019-04-05T02:42:48.374Z,9.68
2019-04-05T02:45:17.025Z,8.70
2019-04-05T02:47:51.759Z,10.20
2019-04-05T02:50:20.841Z,10.10
2019-04-05T02:52:50.080Z,9.40
2019-04-05T02:55:17.386Z,10.15
2019-04-05T02:57:45.376Z,10.70
2019-04-05T03:00:12.846Z,9.20
2019-04-05T03:02:41.621Z,10.32
2019-04-05T03:05:09.001Z,10.18
2019-04-05T03:07:36.031Z,10.43
2019-04-05T03:10:04.506Z,10.70
2019-04-05T03:12:32.260Z,9.70
2019-04-05T03:15:01.742Z,9.60
2019-04-05T03:17:29.053Z,9.53
2019-04-05T03:19:59.128Z,8.60
2019-04-05T03:22:28.620Z,10.68
2019-04-05T03:24:58.172Z,9.75
2019-04-05T03:27:28.785Z,10.48
2019-04-05T03:29:55.963Z,9.70
2019-04-05T03:32:23.315Z,10.20
2019-04-05T03:34:51.061Z,10.35
2019-04-05T03:37:18.386Z,11.43
2019-04-05T03:39:45.680Z,10.13
2019-04-05T03:42:13.285Z,10.78
2019-04-05T03:44:41.220Z,10.35
2019-04-05T03:47:08.797Z,12.07
2019-04-05T03:49:35.889Z,10.82
2019-04-05T03:52:04.802Z,11.03
2019-04-05T03:54:31.983Z,9.98
2019-04-05T03:56:59.138Z,12.68
2019-04-05T03:59:26.036Z,11.80
2019-04-05T04:01:53.228Z,11.30
2019-04-05T04:04:20.315Z,11.20
2019-04-05T04:06:47.516Z,11.48
2019-04-05T04:09:14.514Z,11.70
2019-04-05T04:11:41.679Z,10.55
2019-04-05T04:14:09.303Z,11.25
2019-04-05T04:16:36.489Z,10.72
2019-04-05T04:19:03.515Z,9.83
2019-04-05T04:21:49.784Z,11.90
2019-04-05T04:24:17.950Z,11.65
2019-04-05T04:26:45.140Z,10.93
2019-04-05T04:29:12.589Z,11.73
2019-04-05T04:31:39.637Z,11.10
2019-04-05T04:34:06.929Z,11.68
2019-04-05T04:36:34.082Z,12.55
2019-04-05T04:39:01.282Z,10.40
2019-04-05T04:41:31.899Z,10.55
2019-04-05T04:43:58.293Z,9.95
2019-04-05T04:46:26.619Z,11.38
2019-04-05T04:48:53.988Z,12.20
2019-04-05T04:51:21.817Z,11.48
2019-04-05T04:53:49.017Z,12.30
2019-04-05T04:56:16.264Z,12.00
2019-04-05T04:58:46.228Z,11.45
2019-04-05T05:01:13.180Z,12.45
2019-04-05T05:03:41.871Z,12.30
2019-04-05T05:06:09.213Z,11.85
2019-04-05T05:08:36.352Z,11.90
2019-04-05T05:11:13.868Z,12.05
2019-04-05T05:13:34.328Z,10.23
2019-04-05T05:16:02.160Z,10.70
2019-04-05T05:18:34.751Z,9.83
2019-04-05T05:21:02.197Z,9.63
2019-04-05T05:23:29.680Z,10.93
2019-04-05T05:25:56.807Z,10.45
2019-04-05T05:28:23.985Z,10.20
2019-04-05T05:30:51.365Z,11.33
2019-04-05T05:33:18.351Z,10.93
2019-04-05T05:35:45.760Z,13.32
2019-04-05T05:38:13.079Z,12.93
2019-04-05T05:40:40.053Z,12.00
2019-04-05T05:43:07.354Z,13.95
2019-04-05T05:45:40.924Z,13.83
2019-04-05T05:48:03.949Z,12.18
2019-04-05T05:50:30.886Z,12.18
2019-04-05T05:52:58.517Z,11.15
2019-04-05T05:55:25.485Z,12.07
2019-04-05T05:57:55.261Z,10.40
2019-04-05T06:00:24.467Z,11.45
2019-04-05T06:02:51.616Z,10.65
2019-04-05T06:05:18.754Z,11.18
2019-04-05T06:07:45.753Z,12.37
2019-04-05T06:10:13.656Z,11.43
2019-04-05T06:12:40.777Z,11.25
2019-04-05T06:15:07.909Z,10.38
2019-04-05T06:17:35.037Z,10.55
2019-04-05T06:20:05.564Z,9.80
2019-04-05T06:22:34.783Z,10.15
2019-04-05T06:25:05.625Z,9.68
2019-04-05T06:27:35.317Z,9.05
2019-04-05T06:30:01.490Z,10.23
2019-04-05T06:32:28.442Z,9.10
2019-04-05T06:34:55.350Z,9.63
2019-04-05T06:37:22.335Z,9.35
2019-04-05T06:39:49.416Z,8.68
2019-04-05T06:42:16.434Z,9.80
2019-04-05T06:44:43.469Z,8.95
2019-04-05T06:47:10.512Z,9.30
2019-04-05T06:49:37.590Z,8.43
2019-04-05T06:52:04.638Z,9.30
2019-04-05T06:54:31.723Z,9.20
2019-04-05T06:56:58.709Z,8.70
2019-04-05T06:59:25.684Z,8.30
2019-04-05T07:01:52.903Z,8.15
2019-04-05T07:04:20.328Z,8.25
2019-04-05T07:06:50.062Z,8.00
2019-04-05T07:09:18.380Z,6.83
2019-04-05T07:11:45.455Z,6.62
2019-04-05T07:14:12.756Z,7.22
2019-04-05T07:16:42.500Z,6.55
2019-04-05T07:19:10.344Z,6.72
2019-04-05T07:21:37.359Z,6.70
2019-04-05T07:24:04.665Z,7.97
2019-04-05T07:26:31.551Z,6.05
2019-04-05T07:29:01.191Z,6.00
2019-04-05T07:31:28.110Z,6.33
2019-04-05T07:33:56.351Z,6.03
2019-04-05T07:36:26.491Z,5.83
2019-04-05T07:38:53.915Z,5.35
2019-04-05T07:41:21.395Z,5.67
2019-04-05T07:43:48.820Z,5.85
2019-04-05T07:46:17.897Z,5.47
2019-04-05T07:48:45.598Z,5.58
2019-04-05T07:51:25.736Z,5.40
2019-04-05T07:53:52.730Z,6.17
2019-04-05T07:56:22.303Z,5.00
2019-04-05T07:58:49.670Z,5.15
2019-04-05T08:01:16.703Z,5.22
2019-04-05T08:03:43.796Z,5.33
2019-04-05T08:06:11.232Z,5.03
2019-04-05T08:09:09.129Z,5.30
2019-04-05T08:11:40.594Z,4.90
2019-04-05T08:14:08.776Z,4.58
2019-04-05T08:16:35.862Z,4.80
2019-04-05T08:19:02.918Z,5.08
2019-04-05T08:21:30.068Z,4.22
2019-04-05T08:23:57.130Z,4.78
2019-04-05T08:26:24.281Z,4.78
2019-04-05T08:28:51.358Z,4.95
2019-04-05T08:31:18.372Z,4.50
2019-04-05T08:33:45.757Z,5.03
2019-04-05T08:36:12.848Z,4.75
2019-04-05T08:38:40.121Z,4.70
2019-04-05T08:41:07.046Z,4.47
2019-04-05T08:43:33.957Z,4.45
2019-04-05T08:46:00.886Z,5.05
2019-04-05T08:48:27.867Z,5.28
2019-04-05T08:50:54.864Z,4.95
2019-04-05T08:53:21.920Z,5.37
2019-04-05T08:55:50.100Z,5.35
2019-04-05T08:58:17.108Z,5.83
2019-04-05T09:00:44.242Z,5.72
2019-04-05T09:03:12.027Z,6.45
2019-04-05T09:05:39.309Z,7.12
2019-04-05T09:08:06.204Z,5.90
2019-04-05T09:10:33.202Z,7.37
2019-04-05T09:13:00.161Z,6.67
2019-04-05T09:15:27.143Z,6.30
2019-04-05T09:17:54.112Z,6.40
2019-04-05T09:20:21.183Z,6.60
2019-04-05T09:22:48.232Z,6.53
2019-04-05T09:25:15.153Z,7.05
2019-04-05T09:27:42.210Z,7.40
2019-04-05T09:30:09.293Z,6.80
2019-04-05T09:32:36.659Z,7.92
2019-04-05T09:35:05.640Z,6.60
2019-04-05T09:37:32.540Z,7.05
2019-04-05T09:39:59.485Z,8.83
2019-04-05T09:42:26.477Z,7.47
2019-04-05T09:44:53.400Z,8.65
2019-04-05T09:47:20.541Z,7.90
2019-04-05T09:49:47.581Z,6.65
2019-04-05T09:52:14.643Z,7.65
2019-04-05T09:54:41.676Z,6.65
2019-04-05T09:57:08.622Z,7.70
2019-04-05T09:59:35.684Z,6.87
2019-04-05T10:02:02.577Z,7.10
2019-04-05T10:04:31.229Z,7.25
2019-04-05T10:06:58.403Z,7.20
2019-04-05T10:09:26.861Z,8.03
2019-04-05T10:11:53.918Z,7.75
2019-04-05T10:14:20.902Z,7.95
2019-04-05T10:16:47.859Z,7.35
2019-04-05T10:19:14.826Z,6.30
2019-04-05T10:21:41.830Z,7.15
2019-04-05T10:24:08.816Z,8.78
2019-04-05T10:26:35.801Z,7.65
2019-04-05T10:29:02.896Z,8.68
2019-04-05T10:31:29.925Z,6.65
2019-04-05T10:33:58.796Z,7.85
2019-04-05T10:36:26.038Z,7.45
2019-04-05T10:38:53.116Z,8.10
2019-04-05T10:41:22.817Z,7.87
2019-04-05T10:43:48.847Z,8.48
2019-04-05T10:46:15.816Z,7.30
2019-04-05T10:48:42.769Z,7.33
2019-04-05T10:51:09.812Z,8.25
2019-04-05T10:53:36.853Z,7.28
2019-04-05T10:56:04.244Z,8.38
2019-04-05T10:58:31.248Z,8.00
2019-04-05T11:00:58.241Z,7.90
2019-04-05T11:03:25.203Z,8.10
2019-04-05T11:05:52.369Z,7.90
2019-04-05T11:08:19.449Z,8.38
2019-04-05T11:10:46.603Z,7.70
2019-04-05T11:13:13.844Z,8.08
2019-04-05T11:15:40.843Z,8.23
2019-04-05T11:18:07.776Z,8.30
2019-04-05T11:20:34.812Z,7.80
2019-04-05T11:23:01.869Z,8.45
2019-04-05T11:25:28.899Z,7.67
2019-04-05T11:27:57.192Z,7.92
2019-04-05T11:30:52.610Z,7.80
2019-04-05T11:33:20.321Z,8.10
2019-04-05T11:35:47.349Z,8.43
2019-04-05T11:38:14.844Z,8.95
2019-04-05T11:40:43.664Z,8.33
2019-04-05T11:43:10.729Z,8.50
2019-04-05T11:45:38.062Z,9.15
2019-04-05T11:48:05.267Z,8.15
2019-04-05T11:50:34.790Z,9.05
2019-04-05T11:53:01.427Z,8.35
2019-04-05T11:55:28.397Z,9.08
2019-04-05T11:57:55.341Z,7.95
2019-04-05T12:00:24.353Z,8.98
2019-04-05T12:02:56.312Z,8.45
2019-04-05T12:05:26.827Z,9.20
2019-04-05T12:07:52.399Z,8.18
2019-04-05T12:10:19.670Z,8.18
2019-04-05T12:12:48.463Z,8.43
2019-04-05T12:15:15.512Z,8.40
2019-04-05T12:17:42.466Z,8.95
2019-04-05T12:20:10.195Z,8.20
2019-04-05T12:22:37.205Z,9.18
2019-04-05T12:25:07.634Z,9.95
2019-04-05T12:27:34.803Z,8.70
2019-04-05T12:30:02.217Z,8.45
2019-04-05T12:32:34.535Z,9.40
2019-04-05T12:34:58.461Z,8.83
2019-04-05T12:37:25.706Z,8.95
2019-04-05T12:39:52.782Z,7.60
2019-04-05T12:42:19.987Z,9.80
2019-04-05T12:44:47.125Z,9.38
2019-04-05T12:47:15.859Z,9.90
2019-04-05T12:49:45.219Z,9.85
2019-04-05T12:52:21.747Z,9.13
2019-04-05T12:54:41.492Z,8.83
2019-04-05T12:57:09.668Z,8.60
2019-04-05T12:59:36.711Z,9.40
2019-04-05T13:02:04.231Z,8.83
2019-04-05T13:04:31.316Z,8.93
2019-04-05T13:06:58.351Z,9.55
2019-04-05T13:09:25.442Z,7.80
2019-04-05T13:11:52.501Z,8.27
2019-04-05T13:14:19.471Z,7.90
2019-04-05T13:16:49.321Z,9.85
2019-04-05T13:19:15.636Z,7.80
2019-04-05T13:21:42.697Z,7.67
2019-04-05T13:24:10.207Z,7.60
2019-04-05T13:26:37.512Z,8.25
2019-04-05T13:29:04.561Z,7.62
2019-04-05T13:31:31.490Z,7.25
2019-04-05T13:33:58.503Z,7.05
2019-04-05T13:36:25.707Z,9.05
2019-04-05T13:38:55.031Z,8.70
2019-04-05T13:41:22.629Z,9.10
2019-04-05T13:43:49.987Z,10.78
2019-04-05T13:46:22.191Z,9.15
2019-04-05T13:48:45.849Z,8.90
2019-04-05T13:51:13.118Z,9.90
2019-04-05T13:53:40.577Z,10.08
2019-04-05T13:56:08.601Z,10.40
2019-04-05T13:58:37.888Z,9.05
2019-04-05T14:01:05.831Z,9.30
2019-04-05T14:03:33.049Z,8.93
2019-04-05T14:06:02.042Z,9.33
2019-04-05T14:08:29.271Z,9.08
2019-04-05T14:10:57.458Z,9.47
2019-04-05T14:13:24.780Z,10.47
2019-04-05T14:15:51.973Z,9.75
2019-04-05T14:18:20.766Z,11.05
2019-04-05T14:20:49.974Z,9.28
2019-04-05T14:23:16.942Z,8.40
2019-04-05T14:25:44.261Z,9.53
2019-04-05T14:28:11.284Z,9.68
2019-04-05T14:30:38.321Z,11.00
2019-04-05T14:33:05.477Z,11.50
2019-04-05T14:35:32.525Z,11.22
2019-04-05T14:37:59.696Z,9.83
2019-04-05T14:40:28.921Z,9.28
2019-04-05T14:42:55.881Z,9.30
2019-04-05T14:45:23.177Z,9.58
2019-04-05T14:47:52.151Z,9.37
2019-04-05T14:50:19.139Z,9.40
2019-04-05T14:52:46.301Z,10.40
2019-04-05T14:55:13.265Z,9.83
2019-04-05T14:57:40.637Z,9.60
2019-04-05T15:00:08.574Z,9.98
2019-04-05T15:02:35.715Z,8.93
2019-04-05T15:05:03.087Z,8.98
2019-04-05T15:07:30.236Z,7.97
2019-04-05T15:09:57.250Z,8.20
2019-04-05T15:12:24.335Z,9.15
2019-04-05T15:14:56.151Z,10.80
2019-04-05T15:17:23.691Z,8.73
2019-04-05T15:19:50.837Z,11.00
2019-04-05T15:22:17.851Z,10.10
2019-04-05T15:24:47.094Z,9.70
2019-04-05T15:27:13.981Z,10.30
2019-04-05T15:29:41.104Z,9.83
2019-04-05T15:32:08.434Z,11.28
2019-04-05T15:34:35.466Z,9.58
2019-04-05T15:37:02.841Z,9.77
2019-04-05T15:39:32.903Z,9.43
2019-04-05T15:42:00.061Z,9.30
2019-04-05T15:44:27.309Z,11.83
2019-04-05T15:46:54.524Z,10.23
2019-04-05T15:49:22.228Z,9.38
2019-04-05T15:51:49.624Z,10.60
2019-04-05T15:54:20.229Z,9.70
2019-04-05T15:56:47.879Z,9.63
2019-04-05T15:59:14.978Z,8.80
2019-04-05T16:01:42.058Z,10.95
2019-04-05T16:04:10.007Z,9.45
2019-04-05T16:06:39.038Z,14.98
2019-04-05T16:09:08.496Z,14.40
2019-04-05T16:11:35.616Z,11.73
2019-04-05T16:14:05.281Z,11.80
2019-04-05T16:16:32.536Z,11.63
2019-04-05T16:19:01.173Z,11.13
2019-04-05T16:21:29.004Z,10.80
2019-04-05T16:23:56.006Z,11.85
2019-04-05T16:26:23.061Z,10.95
2019-04-05T16:28:50.205Z,13.18
2019-04-05T16:31:17.646Z,12.60
2019-04-05T16:33:44.836Z,11.68
2019-04-05T16:36:12.170Z,12.40
2019-04-05T16:38:39.578Z,14.43
2019-04-05T16:41:06.798Z,15.32
2019-04-05T16:43:33.831Z,13.65
2019-04-05T16:46:00.908Z,13.50
2019-04-05T16:48:27.965Z,13.32
2019-04-05T16:50:55.207Z,12.28
2019-04-05T16:53:22.437Z,13.58
2019-04-05T16:55:49.484Z,13.13
2019-04-05T16:58:16.892Z,13.20
2019-04-05T17:00:44.092Z,14.25
2019-04-05T17:03:11.551Z,13.05
2019-04-05T17:05:38.940Z,14.25
2019-04-05T17:08:06.089Z,12.68
2019-04-05T17:10:35.994Z,12.68
2019-04-05T17:13:03.112Z,14.03
2019-04-05T17:15:30.164Z,12.82
2019-04-05T17:17:57.318Z,13.15
2019-04-05T17:20:24.692Z,12.00
2019-04-05T17:22:57.992Z,11.18
2019-04-05T17:25:20.623Z,11.15
2019-04-05T17:27:47.626Z,13.30
2019-04-05T17:30:16.494Z,12.45
2019-04-05T17:32:43.533Z,10.98
2019-04-05T17:35:12.280Z,10.55
2019-04-05T17:37:39.367Z,12.00
2019-04-05T17:40:06.733Z,13.03
2019-04-05T17:42:35.026Z,11.90
2019-04-05T17:45:03.000Z,12.65
2019-04-05T17:47:30.235Z,12.35
2019-04-05T17:49:57.394Z,11.85
2019-04-05T17:52:24.718Z,11.20
2019-04-05T17:54:52.384Z,11.78
2019-04-05T17:57:20.092Z,12.25
2019-04-05T17:59:47.819Z,11.83
2019-04-05T18:02:14.926Z,13.80
2019-04-05T18:04:42.106Z,14.65
2019-04-05T18:07:09.703Z,12.82
2019-04-05T18:09:37.151Z,13.43
2019-04-05T18:12:04.545Z,16.65
2019-04-05T18:14:31.821Z,14.47
2019-04-05T18:16:59.310Z,12.50
2019-04-05T18:19:26.337Z,13.22
2019-04-05T18:21:53.497Z,12.45
2019-04-05T18:24:20.571Z,12.25
2019-04-05T18:26:48.306Z,12.43
2019-04-05T18:29:15.322Z,11.40
2019-04-05T18:31:42.593Z,13.05
2019-04-05T18:34:09.657Z,14.30
2019-04-05T18:36:36.902Z,12.85
2019-04-05T18:39:05.955Z,13.78
2019-04-05T18:41:33.836Z,14.15
2019-04-05T18:44:01.124Z,13.53
2019-04-05T18:46:28.315Z,14.50
2019-04-05T18:48:55.388Z,12.45
2019-04-05T18:51:22.520Z,11.00
2019-04-05T18:53:49.648Z,13.40
2019-04-05T18:56:17.031Z,12.10
2019-04-05T18:58:44.689Z,11.30
2019-04-05T19:01:11.663Z,10.75
2019-04-05T19:03:38.930Z,10.43
2019-04-05T19:06:06.029Z,11.60
2019-04-05T19:08:39.469Z,11.50
2019-04-05T19:11:02.110Z,9.93
2019-04-05T19:13:29.090Z,10.20
2019-04-05T19:15:56.545Z,11.33
2019-04-05T19:18:23.663Z,11.05
2019-04-05T19:20:50.823Z,12.80
2019-04-05T19:23:17.927Z,12.70
2019-04-05T19:25:46.554Z,10.55
2019-04-05T19:28:13.858Z,12.10
2019-04-05T19:50:34.320Z,13.40
2019-04-05T19:53:01.512Z,13.50
2019-04-05T19:55:28.617Z,12.23
2019-04-05T19:57:55.619Z,14.28
2019-04-05T20:00:22.744Z,12.03
2019-04-05T20:02:49.812Z,14.30
2019-04-05T20:05:16.824Z,14.85
2019-04-05T20:07:43.805Z,14.83
2019-04-05T20:10:12.500Z,13.43
2019-04-05T20:12:39.500Z,14.45
2019-04-05T20:15:07.771Z,16.37
2019-04-05T20:17:34.835Z,12.78
2019-04-05T20:20:04.202Z,14.90
2019-04-05T20:22:31.142Z,13.88
2019-04-05T20:24:58.285Z,14.90
2019-04-05T20:27:25.418Z,15.05
2019-04-05T20:29:52.573Z,13.30
2019-04-05T20:32:19.671Z,12.28
2019-04-05T20:34:46.720Z,13.20
2019-04-05T20:37:13.798Z,12.30
2019-04-05T20:39:40.920Z,12.63
2019-04-05T20:42:07.901Z,12.63
2019-04-05T20:44:34.878Z,13.03
2019-04-05T20:47:02.024Z,11.63
2019-04-05T20:49:29.083Z,13.93
2019-04-05T20:51:56.151Z,14.15
2019-04-05T20:54:24.981Z,12.60
2019-04-05T20:56:52.277Z,12.90
2019-04-05T20:59:19.381Z,14.53
2019-04-05T21:01:46.388Z,12.98
2019-04-05T21:04:13.355Z,12.98
2019-04-05T21:06:40.303Z,13.03
2019-04-05T21:09:07.293Z,12.73
2019-04-05T21:11:36.768Z,14.75
2019-04-05T21:14:04.015Z,11.83
2019-04-05T21:16:31.066Z,14.47
2019-04-05T21:18:58.090Z,12.73
2019-04-05T21:21:25.200Z,13.78
2019-04-05T21:23:52.491Z,15.28
2019-04-05T21:26:19.943Z,14.95
2019-04-05T21:28:47.041Z,15.65
2019-04-05T21:31:14.159Z,16.75
2019-04-05T21:33:41.243Z,14.10
2019-04-05T21:36:08.315Z,16.55
2019-04-05T21:38:35.689Z,15.23
2019-04-05T21:41:02.755Z,18.15
2019-04-05T21:43:29.939Z,19.95
2019-04-05T21:45:57.302Z,18.07
2019-04-05T21:48:24.293Z,14.50
2019-04-05T21:50:51.281Z,14.68
2019-04-05T21:53:19.092Z,14.25
2019-04-05T21:55:47.803Z,17.60
2019-04-05T21:58:14.933Z,15.70
2019-04-05T22:00:50.396Z,14.80
2019-04-05T22:03:17.593Z,14.75
2019-04-05T22:05:44.658Z,14.10
2019-04-05T22:08:11.748Z,14.30
2019-04-05T22:10:39.198Z,16.70
2019-04-05T22:13:06.212Z,17.32
2019-04-05T22:15:33.362Z,19.35
2019-04-05T22:18:04.356Z,19.12
2019-04-05T22:20:31.368Z,18.75
2019-04-05T22:22:58.616Z,15.53
2019-04-05T22:25:25.615Z,15.65
2019-04-05T22:27:52.593Z,17.05
2019-04-05T22:30:20.148Z,15.05
2019-04-05T22:32:47.314Z,17.05
2019-04-05T22:35:14.462Z,17.60
2019-04-05T22:37:41.461Z,17.15
2019-04-05T22:40:08.758Z,18.25
2019-04-05T22:42:35.763Z,19.77
2019-04-05T22:45:03.067Z,20.85
2019-04-05T22:47:30.033Z,19.98
2019-04-05T22:49:57.089Z,19.35
2019-04-05T22:52:23.979Z,19.25
2019-04-05T22:54:50.965Z,17.77
2019-04-05T22:57:17.920Z,16.80
2019-04-05T22:59:44.896Z,17.73
2019-04-05T23:02:11.953Z,16.35
2019-04-05T23:04:38.947Z,15.28
2019-04-05T23:07:05.953Z,16.12
2019-04-05T23:09:32.899Z,14.58
2019-04-05T23:11:59.865Z,15.65
2019-04-05T23:14:26.746Z,16.70
2019-04-05T23:16:53.798Z,17.60
2019-04-05T23:19:20.932Z,15.75
2019-04-05T23:21:48.090Z,13.95
2019-04-05T23:24:15.205Z,14.35
2019-04-05T23:26:42.226Z,13.55
2019-04-05T23:29:09.240Z,13.35
2019-04-05T23:31:36.382Z,14.53
2019-04-05T23:34:04.402Z,14.13
2019-04-05T23:36:31.335Z,12.98
2019-04-05T23:38:58.507Z,13.83
2019-04-05T23:41:25.559Z,14.50
2019-04-05T23:43:52.599Z,12.90
2019-04-05T23:46:20.813Z,12.85
2019-04-05T23:48:47.889Z,12.73
2019-04-05T23:51:14.908Z,11.93
2019-04-05T23:53:41.835Z,12.40
2019-04-05T23:56:08.919Z,11.50
2019-04-05T23:58:35.988Z,14.07
